Time;durP1;ratioP1;P1;durP2;ratioP2;P2;SDS_P1;SDS_P2;PMS_P1;PMS_P2;Temp;Humidity;BMP_temperature;BMP_pressure;BME280_temperature;BME280_humidity;BME280_pressure;Samples;Min_cycle;Max_cycle;Signal;HPM_P1;HPM_P2
2023/03/16 00:02:11;;;;;;;2.28;1.30;;;;;;;2.32;100.00;99652.31;6298397;28;20056;-77
2023/03/16 00:05:13;;;;;;;3.17;1.38;;;;;;;2.28;100.00;99644.75;6298408;28;20072;-72
2023/03/16 00:08:14;;;;;;;1.92;0.93;;;;;;;2.31;100.00;99649.81;6319114;28;20092;-72
2023/03/16 00:11:14;;;;;;;1.38;1.10;;;;;;;2.44;100.00;99656.22;6324844;28;20065;-72
2023/03/16 00:14:15;;;;;;;2.15;1.17;;;;;;;2.49;100.00;99649.19;6324129;28;20532;-78
2023/03/16 00:17:18;;;;;;;1.13;1.00;;;;;;;2.45;100.00;99662.19;6324465;28;20380;-71
2023/03/16 00:20:19;;;;;;;0.77;0.77;;;;;;;2.51;100.00;99662.84;6322915;28;20047;-71
2023/03/16 00:23:26;;;;;;;3.83;1.85;;;;;;;2.55;99.84;99653.25;6323170;28;20048;-77
2023/03/16 00:26:26;;;;;;;1.63;1.13;;;;;;;2.66;99.92;99656.31;6323063;28;20055;-77
2023/03/16 00:29:27;;;;;;;2.33;1.55;;;;;;;2.63;99.45;99669.28;6324888;28;20118;-77
2023/03/16 00:32:31;;;;;;;4.18;1.23;;;;;;;2.65;97.26;99664.09;6324670;28;20058;-77
2023/03/16 00:35:33;;;;;;;1.85;1.42;;;;;;;2.66;97.87;99663.19;6322953;28;20468;-72
2023/03/16 00:38:37;;;;;;;1.17;0.95;;;;;;;2.66;96.81;99676.06;6324526;28;20047;-77
2023/03/16 00:41:38;;;;;;;0.88;0.85;;;;;;;2.70;95.60;99675.94;6323697;28;20543;-77
2023/03/16 00:44:40;;;;;;;8.98;1.55;;;;;;;2.70;95.76;99665.63;6310619;28;20036;-71
2023/03/16 00:47:41;;;;;;;;;;;;;;;2.79;95.65;99680.75;6293560;28;20032;-71
2023/03/16 00:50:42;;;;;;;1.38;1.27;;;;;;;2.77;96.71;99684.28;6301003;28;19943;-71
2023/03/16 00:53:44;;;;;;;1.65;1.33;;;;;;;2.67;94.78;99676.03;6294531;28;20040;-71
2023/03/16 00:56:45;;;;;;;2.25;1.80;;;;;;;2.72;94.92;99670.72;6301996;28;20051;-71
2023/03/16 00:59:46;;;;;;;0.90;0.73;;;;;;;2.73;93.20;99678.38;6310989;28;20068;-72
2023/03/16 01:02:47;;;;;;;1.80;1.30;;;;;;;2.82;93.06;99684.94;6300451;28;20048;-72
2023/03/16 01:05:48;;;;;;;13.52;1.45;;;;;;;2.62;93.89;99683.09;6303160;28;20037;-77
2023/03/16 01:08:49;;;;;;;1.70;1.23;;;;;;;2.67;94.34;99693.22;6313904;28;20032;-71
2023/03/16 01:11:52;;;;;;;2.58;1.25;;;;;;;2.67;94.27;99691.47;6315197;28;20377;-72
2023/03/16 01:14:54;;;;;;;3.00;1.65;;;;;;;2.62;94.63;99693.38;6306949;28;20047;-72
2023/03/16 01:17:55;;;;;;;0.82;0.82;;;;;;;2.63;91.82;99690.75;6306931;28;20036;-72
2023/03/16 01:20:55;;;;;;;5.35;1.83;;;;;;;2.70;91.34;99682.81;6283007;28;20099;-77
2023/03/16 01:23:59;;;;;;;3.90;1.05;;;;;;;2.69;91.14;99692.28;6314263;28;20236;-76
2023/03/16 01:26:59;;;;;;;1.75;0.95;;;;;;;2.63;94.17;99701.03;6297815;28;20108;-71
2023/03/16 01:30:01;;;;;;;2.83;1.25;;;;;;;2.73;91.58;99711.88;6301042;28;20033;-77
2023/03/16 01:33:02;;;;;;;2.65;0.80;;;;;;;2.65;91.74;99710.47;6294541;28;20051;-77
2023/03/16 01:36:06;;;;;;;1.35;1.25;;;;;;;2.58;88.86;99715.81;6309088;28;20059;-77
2023/03/16 01:39:06;;;;;;;1.00;0.90;;;;;;;2.67;88.26;99727.56;6296062;28;20504;-76
2023/03/16 01:42:08;;;;;;;2.33;1.42;;;;;;;2.61;87.39;99718.31;6300974;28;20051;-75
2023/03/16 01:45:47;;;;;;;7.45;2.25;;;;;;;2.71;86.51;99711.09;6296130;28;20425;-72
2023/03/16 01:49:04;;;;;;;0.85;0.75;;;;;;;2.72;85.72;99720.53;6295060;28;20119;-71
2023/03/16 01:52:13;;;;;;;3.25;1.30;;;;;;;2.75;86.96;99722.16;6298131;28;20116;-76
2023/03/16 01:55:14;;;;;;;1.55;1.25;;;;;;;2.68;86.94;99724.09;6272014;28;20064;-77
2023/03/16 01:58:15;;;;;;;3.70;1.73;;;;;;;2.68;86.35;99730.97;6306981;28;20039;-77
2023/03/16 02:01:17;;;;;;;1.75;1.55;;;;;;;2.62;87.34;99722.56;6302656;28;20443;-72
2023/03/16 02:04:41;;;;;;;2.30;1.17;;;;;;;2.72;83.53;99733.41;6297056;28;20048;-71
2023/03/16 02:07:50;;;;;;;1.63;1.38;;;;;;;2.75;85.53;99732.44;6300820;28;20059;-76
2023/03/16 02:10:53;;;;;;;2.63;1.80;;;;;;;2.69;84.53;99719.78;6298168;28;20040;-70
2023/03/16 02:13:59;;;;;;;2.00;1.23;;;;;;;2.69;84.31;99724.94;6322237;28;20048;-76
2023/03/16 02:17:00;;;;;;;1.70;1.38;;;;;;;2.73;85.74;99729.91;6297493;28;20127;-71
2023/03/16 02:20:27;;;;;;;4.30;1.52;;;;;;;2.80;84.04;99721.09;6301747;28;20039;-75
2023/03/16 02:23:28;;;;;;;0.75;0.75;;;;;;;2.76;83.41;99711.78;6317047;28;20406;-71
2023/03/16 02:26:53;;;;;;;5.15;1.02;;;;;;;2.71;81.74;99723.16;6302129;28;20044;-71
2023/03/16 02:30:06;;;;;;;0.73;0.73;;;;;;;2.83;81.09;99727.88;6287697;28;20039;-71
2023/03/16 02:33:08;;;;;;;0.75;0.75;;;;;;;2.76;80.58;99714.38;6299134;28;20098;-75
2023/03/16 02:36:09;;;;;;;1.75;1.33;;;;;;;2.80;82.53;99704.78;6296121;28;20120;-76
2023/03/16 02:39:09;;;;;;;4.53;1.27;;;;;;;2.77;80.96;99726.34;6303212;28;20036;-71
2023/03/16 02:42:20;;;;;;;1.08;0.85;;;;;;;2.79;82.15;99724.56;6299659;28;20135;-76
2023/03/16 02:45:26;;;;;;;0.65;0.65;;;;;;;2.75;81.47;99727.31;6280324;28;20036;-76
2023/03/16 02:48:53;;;;;;;2.28;1.27;;;;;;;2.73;81.38;99732.50;6299730;28;20491;-71
2023/03/16 02:51:56;;;;;;;2.13;1.83;;;;;;;2.71;80.55;99733.44;6270717;28;20052;-76
2023/03/16 02:54:56;;;;;;;;;;;;;;;2.73;79.96;99741.97;6284315;28;20028;-75
2023/03/16 02:57:57;;;;;;;0.55;0.55;;;;;;;2.69;79.55;99736.06;6318643;28;20397;-71
2023/03/16 03:00:58;;;;;;;1.38;0.98;;;;;;;2.82;81.24;99764.84;6311299;28;20040;-75
2023/03/16 03:04:00;;;;;;;0.47;0.47;;;;;;;2.82;80.05;99757.97;6301246;28;20040;-71
2023/03/16 03:07:03;;;;;;;2.37;1.47;;;;;;;2.77;79.18;99764.16;6296718;28;20509;-71
2023/03/16 03:10:05;;;;;;;2.17;1.20;;;;;;;2.79;79.93;99754.66;6323609;28;20036;-75
2023/03/16 03:13:06;;;;;;;1.88;0.88;;;;;;;2.71;80.28;99752.31;6310427;28;20051;-71
2023/03/16 03:16:07;;;;;;;2.58;1.40;;;;;;;2.79;80.45;99757.22;6300512;28;20060;-71
2023/03/16 03:19:11;;;;;;;1.48;1.00;;;;;;;2.84;81.04;99768.19;6317854;28;20063;-76
2023/03/16 03:22:17;;;;;;;1.67;1.58;;;;;;;2.71;80.35;99765.19;6325063;28;20411;-75
2023/03/16 03:25:19;;;;;;;1.23;1.00;;;;;;;2.65;79.82;99780.03;6315693;28;20036;-76
2023/03/16 03:28:22;;;;;;;1.33;0.90;;;;;;;2.61;81.90;99771.53;6299256;28;20058;-75
2023/03/16 03:31:25;;;;;;;1.92;1.13;;;;;;;2.50;81.01;99781.38;6307717;28;20487;-71
2023/03/16 03:34:27;;;;;;;0.63;0.63;;;;;;;2.54;81.85;99799.25;6317507;28;20112;-75
2023/03/16 03:37:28;;;;;;;1.73;1.15;;;;;;;2.51;82.29;99798.50;6311118;28;20043;-75
2023/03/16 03:40:29;;;;;;;2.05;1.60;;;;;;;2.57;83.77;99804.31;6297566;28;20097;-75
2023/03/16 03:43:30;;;;;;;5.10;1.80;;;;;;;2.45;83.60;99802.13;6305229;28;20431;-75
2023/03/16 03:46:30;;;;;;;0.88;0.88;;;;;;;2.50;83.30;99812.28;6306692;28;20036;-75
2023/03/16 03:49:34;;;;;;;2.20;1.38;;;;;;;2.49;83.51;99813.16;6320205;28;20032;-75
2023/03/16 03:52:34;;;;;;;2.83;1.23;;;;;;;2.42;83.62;99810.78;6304099;28;20043;-70
2023/03/16 03:55:35;;;;;;;0.80;0.80;;;;;;;2.53;84.07;99818.19;6310036;28;20040;-75
2023/03/16 03:58:36;;;;;;;2.88;1.30;;;;;;;2.42;82.83;99803.03;6307314;28;20044;-70
2023/03/16 04:01:36;;;;;;;3.70;1.40;;;;;;;2.44;83.21;99812.47;6310937;28;20044;-70
2023/03/16 04:04:38;;;;;;;1.27;0.90;;;;;;;2.40;82.95;99820.28;6304913;28;20032;-75
2023/03/16 04:07:40;;;;;;;7.78;1.02;;;;;;;2.46;83.60;99814.09;6288880;28;20405;-71
2023/03/16 04:10:41;;;;;;;3.55;1.60;;;;;;;2.61;82.40;99833.38;6296694;28;20040;-70
2023/03/16 04:13:41;;;;;;;2.63;1.38;;;;;;;2.39;83.26;99821.19;6298334;28;20462;-75
2023/03/16 04:16:43;;;;;;;2.15;1.05;;;;;;;2.48;82.57;99832.09;6284784;28;20857;-70
2023/03/16 04:19:43;;;;;;;0.98;0.77;;;;;;;2.58;81.66;99838.63;6287647;28;20037;-70
2023/03/16 04:22:46;;;;;;;2.50;1.67;;;;;;;2.54;83.09;99848.19;6298567;28;20408;-75
2023/03/16 04:25:47;;;;;;;0.93;0.52;;;;;;;2.54;80.95;99844.78;6294320;28;20072;-70
2023/03/16 04:28:47;;;;;;;2.25;1.02;;;;;;;2.47;81.57;99857.00;6291495;28;20399;-70
2023/03/16 04:31:49;;;;;;;1.45;1.02;;;;;;;2.53;82.83;99846.50;6294515;28;20046;-71
2023/03/16 04:34:54;;;;;;;3.53;1.30;;;;;;;2.44;81.78;99854.50;6295107;28;20041;-70
2023/03/16 04:37:55;;;;;;;4.80;0.98;;;;;;;2.59;81.25;99864.34;6279436;28;20041;-74
2023/03/16 04:40:56;;;;;;;0.65;0.65;;;;;;;2.52;82.45;99880.03;6287634;28;20463;-75
2023/03/16 04:43:57;;;;;;;0.73;0.73;;;;;;;2.31;82.80;99874.66;6290668;28;20159;-74
2023/03/16 04:47:00;;;;;;;0.80;0.77;;;;;;;2.45;81.93;99881.97;6290301;28;20040;-71
2023/03/16 04:50:01;;;;;;;1.17;0.88;;;;;;;2.51;81.75;99884.34;6295325;28;20032;-71
2023/03/16 04:53:03;;;;;;;1.80;1.47;;;;;;;2.39;80.76;99892.44;6290125;28;20116;-71
2023/03/16 04:56:06;;;;;;;2.50;1.30;;;;;;;2.49;80.14;99899.00;6293174;28;20036;-71
2023/03/16 04:59:07;;;;;;;0.75;0.75;;;;;;;2.41;80.83;99901.81;6296551;28;20276;-71
2023/03/16 05:02:07;;;;;;;1.33;0.93;;;;;;;2.56;79.30;99897.09;6293769;28;20077;-75
2023/03/16 05:05:11;;;;;;;1.02;0.93;;;;;;;2.45;79.17;99906.84;6281910;28;20040;-70
2023/03/16 05:08:12;;;;;;;2.60;1.25;;;;;;;2.52;79.38;99911.78;6297320;28;20072;-71
2023/03/16 05:11:13;;;;;;;0.52;0.52;;;;;;;2.51;79.84;99917.84;6294480;28;20041;-74
2023/03/16 05:14:14;;;;;;;2.05;1.35;;;;;;;2.49;78.84;99916.19;6296801;28;20108;-71
2023/03/16 05:17:15;;;;;;;0.43;0.43;;;;;;;2.52;77.72;99916.94;6298054;28;20411;-75
2023/03/16 05:20:16;;;;;;;3.28;0.90;;;;;;;2.74;77.85;99922.28;6300592;28;20036;-75
2023/03/16 05:23:18;;;;;;;2.20;0.90;;;;;;;2.57;77.42;99924.50;6304459;28;20074;-75
2023/03/16 05:26:19;;;;;;;1.48;1.38;;;;;;;2.67;77.10;99928.50;6323698;28;20036;-75
2023/03/16 05:29:22;;;;;;;0.77;0.60;;;;;;;2.80;77.15;99934.13;6322517;28;20066;-75
2023/03/16 05:32:23;;;;;;;1.83;1.42;;;;;;;2.72;77.51;99925.78;6322876;28;20121;-75
2023/03/16 05:35:23;;;;;;;0.80;0.80;;;;;;;2.72;76.78;99931.78;6323189;28;20427;-75
2023/03/16 05:38:26;;;;;;;8.80;1.58;;;;;;;2.79;76.07;99938.44;6321931;28;20046;-70
2023/03/16 05:41:27;;;;;;;3.08;0.98;;;;;;;2.88;77.68;99950.19;6297240;28;20047;-71
2023/03/16 05:44:27;;;;;;;1.10;1.00;;;;;;;2.88;76.66;99946.75;6308877;28;20420;-71
2023/03/16 05:47:28;;;;;;;3.45;1.77;;;;;;;2.83;76.53;99947.75;6296346;28;20124;-75
2023/03/16 05:50:29;;;;;;;1.98;1.10;;;;;;;2.90;76.11;99950.97;6298321;28;20051;-75
2023/03/16 05:53:34;;;;;;;1.40;1.10;;;;;;;2.95;76.83;99950.84;6295527;28;20510;-71
2023/03/16 05:56:35;;;;;;;1.23;1.13;;;;;;;3.11;77.33;99962.38;6294226;28;20048;-71
2023/03/16 05:59:36;;;;;;;4.53;1.40;;;;;;;2.99;75.31;99967.91;6295175;28;20114;-70
2023/03/16 06:02:37;;;;;;;4.53;1.98;;;;;;;3.11;76.57;99967.53;6296512;28;20492;-70
2023/03/16 06:05:40;;;;;;;3.25;1.98;;;;;;;3.20;75.97;99974.97;6297376;28;20439;-74
2023/03/16 06:08:42;;;;;;;0.63;0.50;;;;;;;3.15;76.03;99973.41;6296409;28;20553;-75
2023/03/16 06:11:43;;;;;;;1.23;0.73;;;;;;;3.26;75.21;99983.41;6296758;28;20119;-71
2023/03/16 06:14:43;;;;;;;1.13;0.45;;;;;;;3.13;75.39;99994.09;6295948;28;20094;-70
2023/03/16 06:17:44;;;;;;;6.70;1.35;;;;;;;3.25;76.25;99997.16;6296471;28;20040;-70
2023/03/16 06:20:46;;;;;;;2.50;1.35;;;;;;;3.35;76.05;99996.81;6295945;28;20124;-75
2023/03/16 06:23:49;;;;;;;1.48;1.15;;;;;;;3.26;75.83;99991.13;6295964;28;20052;-70
2023/03/16 06:26:50;;;;;;;2.10;1.25;;;;;;;3.28;75.03;100007.41;6296287;28;20067;-75
2023/03/16 06:29:51;;;;;;;2.30;1.23;;;;;;;3.33;76.43;100018.41;6297381;28;20488;-70
2023/03/16 06:32:52;;;;;;;2.40;1.50;;;;;;;3.19;75.62;100009.38;6296117;28;20060;-75
2023/03/16 06:35:53;;;;;;;1.45;1.10;;;;;;;3.31;76.45;100023.59;6296666;28;20116;-70
2023/03/16 06:38:53;;;;;;;1.08;0.80;;;;;;;3.33;75.51;100028.72;6270680;28;20041;-70
2023/03/16 06:41:56;;;;;;;1.48;1.02;;;;;;;3.38;75.39;100024.28;6270149;28;20048;-70
2023/03/16 06:45:00;;;;;;;1.30;1.17;;;;;;;3.34;76.02;100039.00;6273777;28;20095;-75
2023/03/16 06:48:01;;;;;;;4.07;1.20;;;;;;;3.55;76.95;100039.22;6275447;28;20080;-75
2023/03/16 06:51:02;;;;;;;3.60;1.67;;;;;;;3.51;74.38;100045.38;6276994;28;20041;-70
2023/03/16 06:54:02;;;;;;;1.35;0.93;;;;;;;3.57;75.60;100048.56;6276050;28;20044;-74
2023/03/16 06:57:04;;;;;;;3.83;1.58;;;;;;;3.46;74.18;100066.16;6276073;28;20049;-74
2023/03/16 07:00:06;;;;;;;3.03;1.60;;;;;;;3.63;74.68;100066.44;6292744;28;20415;-75
2023/03/16 07:03:07;;;;;;;3.97;2.05;;;;;;;3.61;73.78;100068.22;6277344;28;20099;-71
2023/03/16 07:06:08;;;;;;;1.85;1.52;;;;;;;3.66;74.21;100082.72;6276842;28;20049;-74
2023/03/16 07:09:09;;;;;;;2.47;1.33;;;;;;;3.57;72.39;100069.22;6276612;28;20037;-74
2023/03/16 07:12:13;;;;;;;3.75;1.63;;;;;;;3.61;72.13;100078.56;6275463;28;20126;-71
2023/03/16 07:15:14;;;;;;;1.40;0.70;;;;;;;3.80;72.78;100086.53;6275385;28;20052;-74
2023/03/16 07:18:15;;;;;;;2.85;1.80;;;;;;;4.13;71.49;100081.16;6274672;28;20532;-70
2023/03/16 07:21:17;;;;;;;2.50;1.80;;;;;;;4.47;71.28;100094.63;6275889;28;20055;-70
2023/03/16 07:24:18;;;;;;;2.50;1.33;;;;;;;4.71;68.81;100088.59;6290949;28;20037;-70
2023/03/16 07:27:22;;;;;;;0.57;0.55;;;;;;;5.13;69.54;100093.09;6291667;28;20405;-75
2023/03/16 07:30:24;;;;;;;3.00;1.40;;;;;;;5.33;68.05;100091.47;6274892;28;20045;-74
2023/03/16 07:33:24;;;;;;;2.47;1.20;;;;;;;5.46;66.98;100092.69;6291157;28;20102;-70
2023/03/16 07:36:25;;;;;;;4.25;1.92;;;;;;;5.20;67.55;100086.75;6275221;28;20424;-71
2023/03/16 07:39:27;;;;;;;6.93;1.20;;;;;;;4.99;66.10;100088.44;6274627;28;20477;-70
2023/03/16 07:42:30;;;;;;;5.50;1.48;;;;;;;5.36;66.68;100094.78;6290384;28;20047;-70
2023/03/16 07:45:31;;;;;;;3.40;1.33;;;;;;;5.33;65.49;100099.22;6275171;28;20124;-75
2023/03/16 07:48:32;;;;;;;2.78;1.92;;;;;;;5.48;65.41;100095.19;6274974;28;20055;-70
2023/03/16 07:51:32;;;;;;;1.30;0.95;;;;;;;5.57;64.16;100094.84;6290271;28;20060;-70
2023/03/16 07:54:33;;;;;;;2.47;1.08;;;;;;;5.86;63.78;100102.28;6274815;28;20048;-74
2023/03/16 07:57:34;;;;;;;4.07;1.65;;;;;;;5.71;64.97;100100.31;6291123;28;20071;-71
2023/03/16 08:00:35;;;;;;;2.95;1.48;;;;;;;5.69;64.70;100104.72;6275164;28;20048;-71
2023/03/16 08:03:37;;;;;;;0.93;0.88;;;;;;;5.29;62.58;100097.66;6273579;28;20067;-74
2023/03/16 08:06:38;;;;;;;3.20;2.13;;;;;;;5.19;64.56;100128.25;6274673;28;20045;-74
2023/03/16 08:09:40;;;;;;;2.80;1.42;;;;;;;5.01;62.76;100107.31;6274564;28;20076;-70
2023/03/16 08:12:40;;;;;;;3.45;1.00;;;;;;;4.94;64.09;100105.00;6290332;28;20041;-70
2023/03/16 08:15:45;;;;;;;1.27;1.05;;;;;;;5.09;62.54;100113.97;6274671;28;20190;-74
2023/03/16 08:18:49;;;;;;;1.58;1.13;;;;;;;5.10;61.56;100121.63;6274281;28;20412;-70
2023/03/16 08:21:50;;;;;;;3.08;1.92;;;;;;;5.34;61.97;100124.22;6274375;28;20059;-71
2023/03/16 08:24:51;;;;;;;2.60;1.58;;;;;;;5.30;62.63;100127.81;6290509;28;20049;-75
2023/03/16 08:27:52;;;;;;;2.10;1.17;;;;;;;5.32;63.12;100113.09;6273974;28;20068;-70
2023/03/16 08:30:57;;;;;;;1.75;1.50;;;;;;;5.63;63.64;100130.84;6274053;28;20041;-75
2023/03/16 08:33:58;;;;;;;3.58;1.35;;;;;;;5.63;63.39;100139.44;6275213;28;20102;-75
2023/03/16 08:37:01;;;;;;;0.85;0.80;;;;;;;5.20;62.05;100130.75;6274424;28;20401;-70
2023/03/16 08:40:05;;;;;;;6.03;1.90;;;;;;;5.42;62.83;100132.53;6274703;28;20120;-75
2023/03/16 08:51:33;;;;;;;5.68;2.65;;;;;;;5.31;61.27;100145.84;6275998;28;20075;-74
2023/03/16 08:54:33;;;;;;;3.45;2.03;;;;;;;5.10;61.12;100144.91;6285860;28;20040;-74
2023/03/16 08:57:38;;;;;;;2.55;1.50;;;;;;;5.03;61.25;100148.66;6271728;28;20041;-74
2023/03/16 09:00:39;;;;;;;4.03;1.63;;;;;;;5.22;62.88;100159.16;6274474;28;20044;-75
2023/03/16 09:03:41;;;;;;;4.63;2.45;;;;;;;4.82;62.26;100158.03;6274332;28;20098;-74
2023/03/16 09:06:41;;;;;;;1.40;1.30;;;;;;;5.49;63.51;100172.78;6272483;28;20115;-70
2023/03/16 09:09:42;;;;;;;5.07;2.08;;;;;;;5.87;62.67;100165.28;6273977;28;20400;-75
2023/03/16 09:12:43;;;;;;;6.13;1.60;;;;;;;6.33;62.29;100175.56;6288842;28;20076;-71
2023/03/16 09:15:44;;;;;;;2.45;1.30;;;;;;;6.07;60.33;100171.44;6271907;28;20114;-74
2023/03/16 09:18:45;;;;;;;3.65;1.50;;;;;;;6.18;60.50;100183.06;6288671;28;20041;-70
2023/03/16 09:21:48;;;;;;;1.83;1.13;;;;;;;6.16;60.22;100187.47;6273139;28;20559;-74
2023/03/16 09:24:50;;;;;;;2.35;1.30;;;;;;;6.15;58.89;100187.53;6288838;28;20045;-74
2023/03/16 09:27:51;;;;;;;2.63;1.67;;;;;;;6.31;59.09;100190.34;6273009;28;20449;-74
2023/03/16 09:30:53;;;;;;;4.25;1.92;;;;;;;6.65;58.92;100194.94;6288386;28;20049;-70
2023/03/16 09:33:56;;;;;;;2.10;1.42;;;;;;;6.97;57.06;100183.16;6271610;28;20129;-70
2023/03/16 09:36:57;;;;;;;2.38;1.42;;;;;;;7.10;58.15;100188.66;6272614;28;20041;-74
2023/03/16 09:39:58;;;;;;;7.70;1.65;;;;;;;7.41;58.80;100189.88;6272879;28;20056;-71
2023/03/16 09:43:11;;;;;;;4.72;1.48;;;;;;;7.21;56.20;100190.78;6272465;28;20051;-70
2023/03/16 09:46:35;;;;;;;8.45;1.80;;;;;;;6.83;56.96;100198.50;6287829;28;20041;-74
2023/03/16 09:49:47;;;;;;;3.72;0.93;;;;;;;6.99;56.85;100204.72;6273537;28;20052;-74
2023/03/16 09:52:56;;;;;;;5.05;1.88;;;;;;;7.07;57.39;100212.16;6271457;28;20124;-71
2023/03/16 09:56:15;;;;;;;4.05;1.67;;;;;;;6.42;56.98;100199.34;6273087;28;20063;-75
2023/03/16 09:59:17;;;;;;;5.75;1.80;;;;;;;6.74;58.70;100204.09;6272206;28;20037;-74
2023/03/16 10:02:49;;;;;;;2.78;2.08;;;;;;;7.13;56.95;100211.88;6271706;28;20480;-74
2023/03/16 10:05:58;;;;;;;5.32;1.88;;;;;;;6.97;55.58;100206.53;6272067;28;20040;-70
2023/03/16 10:09:34;;;;;;;3.50;1.20;;;;;;;6.90;54.36;100209.44;6271719;28;20073;-69
2023/03/16 10:12:40;;;;;;;2.10;1.33;;;;;;;7.15;55.76;100217.03;6280495;28;20485;-70
2023/03/16 10:15:42;;;;;;;2.03;1.02;;;;;;;7.22;54.41;100208.88;6272348;28;20072;-69
2023/03/16 10:23:23;;;;;;;1.83;1.38;;;;;;;7.72;51.89;100225.69;6294493;28;20044;-75
2023/03/16 10:26:43;;;;;;;1.95;0.93;;;;;;;7.32;53.18;100217.09;6294139;28;20123;-75
2023/03/16 10:29:44;;;;;;;1.17;0.98;;;;;;;7.67;51.96;100225.88;6297817;28;20075;-75
2023/03/16 10:32:45;;;;;;;2.00;1.25;;;;;;;7.78;51.12;100225.41;6296164;28;20052;-75
2023/03/16 10:35:48;;;;;;;0.63;0.63;;;;;;;7.73;51.31;100245.53;6297391;28;20462;-75
2023/03/16 10:38:54;;;;;;;2.72;1.30;;;;;;;7.85;50.67;100241.53;6295136;28;20062;-70
2023/03/16 10:41:56;;;;;;;1.23;1.00;;;;;;;7.73;52.73;100242.09;6296435;28;20399;-70
2023/03/16 10:44:58;;;;;;;2.92;1.25;;;;;;;7.59;53.50;100235.78;6296101;28;20464;-70
2023/03/16 10:48:19;;;;;;;1.25;0.98;;;;;;;7.88;53.38;100233.56;6297470;28;20091;-69
2023/03/16 10:51:24;;;;;;;1.10;0.98;;;;;;;7.84;52.65;100237.22;6295920;28;20480;-69
2023/03/16 10:54:34;;;;;;;1.88;1.05;;;;;;;7.66;50.75;100236.34;6296755;28;20067;-69
2023/03/16 10:57:40;;;;;;;2.38;1.50;;;;;;;8.16;52.34;100224.50;6296042;28;20120;-70
2023/03/16 11:00:42;;;;;;;1.85;1.08;;;;;;;7.87;51.66;100237.09;6295678;28;20090;-75
2023/03/16 11:03:54;;;;;;;2.15;1.23;;;;;;;7.65;51.17;100243.28;6297391;28;20044;-74
2023/03/16 11:06:56;;;;;;;1.33;1.10;;;;;;;7.72;51.61;100237.81;6297392;28;20045;-74
2023/03/16 11:09:58;;;;;;;3.58;1.15;;;;;;;7.76;49.08;100242.81;6297343;28;20064;-74
2023/03/16 11:13:15;;;;;;;3.45;1.33;;;;;;;8.11;49.71;100245.47;6295987;28;20048;-74
2023/03/16 11:16:40;;;;;;;0.70;0.70;;;;;;;8.50;49.32;100234.09;6297246;28;20041;-74
2023/03/16 11:19:54;;;;;;;1.60;0.88;;;;;;;8.80;50.56;100243.91;6295855;28;20124;-70
2023/03/16 11:22:55;;;;;;;2.70;1.13;;;;;;;8.71;49.47;100247.81;6294555;28;20045;-70
2023/03/16 11:26:01;;;;;;;3.20;1.80;;;;;;;8.49;49.05;100235.03;6295863;28;20040;-71
2023/03/16 11:29:19;;;;;;;1.27;0.90;;;;;;;8.59;49.01;100236.25;6294794;28;20043;-70
2023/03/16 11:32:26;;;;;;;1.20;0.85;;;;;;;8.81;48.71;100223.00;6298860;28;20144;-70
2023/03/16 11:35:30;;;;;;;0.70;0.60;;;;;;;9.00;49.47;100238.53;6298574;28;20041;-70
2023/03/16 11:38:40;;;;;;;1.00;0.85;;;;;;;9.46;47.11;100236.09;6298817;28;20487;-70
2023/03/16 11:41:50;;;;;;;2.45;0.85;;;;;;;9.89;45.84;100233.75;6298728;28;20119;-71
2023/03/16 11:45:09;;;;;;;2.83;1.45;;;;;;;9.95;45.09;100237.81;6299903;28;20044;-71
2023/03/16 11:48:24;;;;;;;2.85;1.35;;;;;;;9.53;46.68;100230.56;6301008;28;20048;-69
2023/03/16 11:51:46;;;;;;;1.90;1.42;;;;;;;9.24;48.42;100236.38;6298456;28;20042;-70
2023/03/16 11:54:47;;;;;;;1.88;0.85;;;;;;;8.22;48.59;100232.00;6300165;28;20040;-70
2023/03/16 11:58:22;;;;;;;1.50;0.98;;;;;;;9.14;50.52;100242.16;6299404;28;20044;-74
2023/03/16 12:01:41;;;;;;;1.67;1.15;;;;;;;9.53;51.34;100227.94;6299834;28;20044;-74
2023/03/16 12:04:43;;;;;;;1.95;1.30;;;;;;;8.63;50.30;100245.59;6299819;28;20048;-71
2023/03/16 12:07:54;;;;;;;1.83;1.33;;;;;;;8.82;48.02;100227.28;6298485;28;20477;-75
2023/03/16 12:11:13;;;;;;;2.00;1.30;;;;;;;9.01;47.41;100232.38;6299136;28;20616;-70
2023/03/16 12:14:27;;;;;;;2.75;1.52;;;;;;;9.13;45.17;100243.94;6299968;28;20500;-75
2023/03/16 12:17:36;;;;;;;0.82;0.80;;;;;;;9.17;45.24;100234.19;6300564;28;20047;-75
2023/03/16 12:20:49;;;;;;;1.40;0.70;;;;;;;9.31;46.12;100246.47;6299201;28;20473;-75
2023/03/16 12:23:59;;;;;;;1.48;0.95;;;;;;;8.83;46.27;100236.78;6298499;28;20052;-75
2023/03/16 12:27:01;;;;;;;1.17;0.60;;;;;;;8.71;45.84;100255.63;6298635;28;20037;-71
2023/03/16 12:30:17;;;;;;;2.90;1.42;;;;;;;9.30;46.33;100235.22;6297381;28;20032;-70
2023/03/16 12:33:36;;;;;;;6.70;0.95;;;;;;;9.17;42.93;100240.25;6297116;28;20049;-70
2023/03/16 12:36:55;;;;;;;2.15;0.90;;;;;;;8.70;43.72;100238.31;6297242;28;20040;-70
2023/03/16 12:52:17;;;;;;;2.70;1.10;;;;;;;9.37;41.08;100248.75;6331586;27;20391;-75
2023/03/16 12:55:23;;;;;;;0.98;0.80;;;;;;;9.29;42.89;100236.16;6344737;28;20043;-76
2023/03/16 12:58:26;;;;;;;1.90;0.90;;;;;;;9.51;43.54;100246.25;6343211;28;20130;-76
2023/03/16 13:01:30;;;;;;;1.85;0.60;;;;;;;10.07;43.15;100251.94;6321561;28;20048;-76
2023/03/16 13:04:37;;;;;;;1.38;0.93;;;;;;;9.79;42.85;100253.44;6318985;28;20036;-76
2023/03/16 13:07:51;;;;;;;2.30;1.17;;;;;;;9.50;41.63;100244.59;6316703;28;20028;-76
2023/03/16 13:11:08;;;;;;;1.42;0.93;;;;;;;8.92;41.06;100255.44;6317106;28;20122;-75
2023/03/16 13:14:15;;;;;;;4.03;1.35;;;;;;;8.41;43.43;100265.75;6318545;28;20037;-76
2023/03/16 13:17:17;;;;;;;1.60;0.80;;;;;;;8.65;44.79;100268.94;6299771;28;20051;-75
2023/03/16 13:20:32;;;;;;;4.32;1.10;;;;;;;9.24;45.79;100270.22;6306351;28;20041;-72
2023/03/16 13:23:49;;;;;;;2.35;0.77;;;;;;;9.34;43.27;100264.56;6316351;28;20101;-71
2023/03/16 13:27:01;;;;;;;2.33;0.98;;;;;;;9.19;44.70;100274.00;6343536;28;20518;-76
2023/03/16 13:30:17;;;;;;;1.90;1.23;;;;;;;9.41;42.75;100286.75;6315060;28;20486;-76
2023/03/16 13:33:22;;;;;;;1.08;0.77;;;;;;;9.38;40.85;100273.88;6318540;28;20045;-76
2023/03/16 13:36:26;;;;;;;1.50;1.15;;;;;;;9.20;41.37;100284.31;6320438;28;20064;-76
2023/03/16 13:39:29;;;;;;;1.63;1.02;;;;;;;8.58;42.55;100280.53;6317261;28;20044;-72
2023/03/16 13:42:32;;;;;;;2.28;1.00;;;;;;;7.98;42.18;100286.81;6317151;28;20051;-71
2023/03/16 13:45:37;;;;;;;1.52;1.08;;;;;;;7.88;44.17;100285.53;6293185;28;20071;-71
2023/03/16 13:48:39;;;;;;;4.80;1.02;;;;;;;8.26;43.63;100291.56;6294458;28;20043;-70
2023/03/16 13:51:41;;;;;;;1.58;1.00;;;;;;;8.87;43.73;100286.88;6309115;28;20055;-70
2023/03/16 13:54:44;;;;;;;8.30;2.15;;;;;;;8.81;40.54;100293.25;6300848;28;20115;-75
2023/03/16 13:57:47;;;;;;;0.80;0.70;;;;;;;8.76;40.10;100299.59;6301025;28;20495;-71
2023/03/16 14:00:47;;;;;;;;;;;;;;;9.56;41.97;100301.56;6301046;28;20097;-76
2023/03/16 14:03:50;;;;;;;1.88;0.90;;;;;;;9.06;39.60;100305.03;6299642;28;19920;-76
2023/03/16 14:06:56;;;;;;;0.85;0.80;;;;;;;8.51;40.29;100295.59;6299414;28;20094;-76
2023/03/16 14:09:57;;;;;;;0.75;0.73;;;;;;;9.14;41.13;100299.44;6300038;28;20055;-76
2023/03/16 14:13:31;;;;;;;6.45;1.02;;;;;;;9.44;40.34;100292.63;6292052;28;20093;-76
2023/03/16 14:16:34;;;;;;;0.47;0.47;;;;;;;9.12;40.17;100288.25;6295566;28;20052;-71
2023/03/16 14:19:46;;;;;;;0.60;0.57;;;;;;;8.97;41.65;100305.50;6299257;28;20044;-71
2023/03/16 14:22:51;;;;;;;6.25;1.58;;;;;;;9.10;40.17;100309.19;6297999;28;20067;-75
2023/03/16 14:25:52;;;;;;;2.50;0.85;;;;;;;8.68;41.11;100308.63;6300345;28;20044;-76
2023/03/16 14:29:10;;;;;;;2.03;0.65;;;;;;;8.02;40.12;100314.34;6300262;28;20112;-73
2023/03/16 14:32:26;;;;;;;0.85;0.60;;;;;;;8.42;41.27;100319.44;6300724;28;20451;-70
2023/03/16 14:35:30;;;;;;;0.65;0.50;;;;;;;8.62;41.57;100310.69;6300395;28;20036;-74
2023/03/16 14:38:39;;;;;;;3.63;1.10;;;;;;;8.52;40.82;100319.84;6299754;28;20064;-70
2023/03/16 14:41:40;;;;;;;0.73;0.55;;;;;;;8.56;39.05;100318.78;6299270;28;20097;-70
2023/03/16 14:44:41;;;;;;;0.80;0.52;;;;;;;8.17;40.62;100325.75;6299098;28;20048;-69
2023/03/16 14:47:44;;;;;;;2.35;0.75;;;;;;;7.79;41.49;100332.72;6332468;28;20479;-74
2023/03/16 14:50:51;;;;;;;1.02;0.80;;;;;;;7.92;41.61;100325.22;6290589;28;20049;-75
2023/03/16 14:53:52;;;;;;;0.50;0.50;;;;;;;8.02;42.61;100327.31;6298874;28;20095;-74
2023/03/16 14:56:58;;;;;;;1.80;0.70;;;;;;;7.57;41.54;100341.47;6298571;28;20047;-74
2023/03/16 15:00:00;;;;;;;1.08;0.50;;;;;;;7.51;42.25;100339.13;6298589;28;20076;-74